createdAt,value
2023-04-03T04:43:47.155Z,99031.66
2023-04-03T04:46:14.416Z,99032.17
2023-04-03T04:48:45.448Z,99033.20
2023-04-03T04:51:13.692Z,99033.38
2023-04-03T04:53:40.439Z,99034.59
2023-04-03T04:56:07.886Z,99034.24
2023-04-03T04:58:37.584Z,99037.36
2023-04-03T05:01:05.884Z,99036.67
2023-04-03T05:03:33.332Z,99037.70
2023-04-03T05:06:00.162Z,99039.08
2023-04-03T05:08:27.051Z,99033.87
2023-04-03T05:10:55.627Z,99038.70
2023-04-03T05:13:24.275Z,99036.94
2023-04-03T05:15:51.090Z,99038.13
2023-04-03T05:18:18.293Z,99039.33
2023-04-03T05:20:45.230Z,99037.55
2023-04-03T05:23:11.928Z,99040.29
2023-04-03T05:25:39.791Z,99041.98
2023-04-03T05:28:06.846Z,99041.96
2023-04-03T05:30:33.747Z,99043.67
2023-04-03T05:33:08.269Z,99044.84
2023-04-03T05:35:44.447Z,99046.70
2023-04-03T05:38:15.327Z,99047.02
2023-04-03T05:40:44.807Z,99041.59
2023-04-03T05:43:11.484Z,99046.30
2023-04-03T05:45:46.762Z,99044.07
2023-04-03T05:48:21.420Z,99049.08
2023-04-03T05:50:49.058Z,99048.89
2023-04-03T05:53:33.646Z,99054.27
2023-04-03T05:56:27.774Z,99056.17
2023-04-03T05:58:59.940Z,99059.83
2023-04-03T06:01:26.828Z,99063.09
2023-04-03T06:03:54.618Z,99061.48
2023-04-03T06:06:22.505Z,99061.23
2023-04-03T06:08:49.213Z,99064.95
2023-04-03T06:11:16.085Z,99065.05
2023-04-03T06:13:43.157Z,99067.45
2023-04-03T06:16:12.338Z,99071.41
2023-04-03T06:18:41.599Z,99075.90
2023-04-03T06:21:08.315Z,99077.41
2023-04-03T06:23:35.224Z,99082.24
2023-04-03T06:26:02.408Z,99083.97
2023-04-03T06:28:30.680Z,99084.33
2023-04-03T06:30:57.699Z,99083.98
2023-04-03T06:33:25.512Z,99084.66
2023-04-03T06:35:56.728Z,99087.75
2023-04-03T06:38:24.678Z,99090.49
2023-04-03T06:40:52.219Z,99093.06
2023-04-03T06:43:24.661Z,99096.51
2023-04-03T06:45:51.442Z,99094.92
2023-04-03T06:48:18.691Z,99096.66
2023-04-03T06:50:46.177Z,99097.91
2023-04-03T06:53:13.428Z,99100.01
2023-04-03T06:55:40.415Z,99100.02
2023-04-03T06:58:13.211Z,99098.48
2023-04-03T07:00:40.261Z,99102.14
2023-04-03T07:03:07.996Z,99102.50
2023-04-03T07:05:35.532Z,99106.53
2023-04-03T07:08:04.284Z,99109.48
2023-04-03T07:10:32.116Z,99109.14
2023-04-03T07:12:59.011Z,99112.96
2023-04-03T07:15:26.461Z,99117.13
2023-04-03T07:17:53.106Z,99120.96
2023-04-03T07:20:20.218Z,99122.88
2023-04-03T07:22:46.959Z,99123.04
2023-04-03T07:25:13.620Z,99123.20
2023-04-03T07:27:40.728Z,99124.96
2023-04-03T07:30:09.674Z,99122.84
2023-04-03T07:32:37.292Z,99127.30
2023-04-03T07:35:06.160Z,99127.80
2023-04-03T07:37:35.145Z,99130.40
2023-04-03T07:40:04.677Z,99136.33
2023-04-03T07:42:38.856Z,99139.30
2023-04-03T07:45:07.065Z,99145.23
2023-04-03T07:47:34.891Z,99149.41
2023-04-03T07:50:08.760Z,99148.52
2023-04-03T07:52:56.753Z,99153.34
2023-04-03T07:55:27.497Z,99150.31
2023-04-03T07:58:00.687Z,99148.50
2023-04-03T08:00:30.420Z,99151.55
2023-04-03T08:03:06.170Z,99152.30
2023-04-03T08:05:37.822Z,99151.36
2023-04-03T08:08:05.374Z,99154.98
2023-04-03T08:10:32.356Z,99158.80
2023-04-03T08:12:59.203Z,99156.92
2023-04-03T08:15:32.170Z,99159.18
2023-04-03T08:18:25.050Z,99164.23
2023-04-03T08:20:52.163Z,99164.35
2023-04-03T08:23:20.078Z,99166.44
2023-04-03T08:25:48.092Z,99171.83
2023-04-03T08:28:15.251Z,99174.78
2023-04-03T08:30:42.937Z,99180.68
2023-04-03T08:33:10.666Z,99183.30
2023-04-03T08:35:41.893Z,99185.70
2023-04-03T08:38:09.824Z,99183.94
2023-04-03T08:40:37.071Z,99185.83
2023-04-03T08:43:06.672Z,99191.55
2023-04-03T08:45:43.805Z,99190.14
2023-04-03T08:48:21.940Z,99194.65
2023-04-03T08:50:53.138Z,99193.95
2023-04-03T08:53:28.752Z,99197.17
2023-04-03T08:55:55.484Z,99200.23
2023-04-03T08:58:23.027Z,99201.91
2023-04-03T09:01:02.060Z,99202.33
2023-04-03T09:03:31.466Z,99205.85
2023-04-03T09:06:06.405Z,99208.16
2023-04-03T09:08:50.589Z,99212.59
2023-04-03T09:11:24.110Z,99215.36
2023-04-03T09:14:12.870Z,99217.98
2023-04-03T09:16:40.275Z,99215.55
2023-04-03T09:19:11.108Z,99222.17
2023-04-03T09:21:44.318Z,99223.23
2023-04-03T09:24:13.273Z,99225.39
2023-04-03T09:26:53.203Z,99232.55
2023-04-03T09:29:21.150Z,99235.88
2023-04-03T09:31:49.458Z,99239.20
2023-04-03T09:34:26.738Z,99238.48
2023-04-03T09:36:54.252Z,99238.77
2023-04-03T09:39:22.369Z,99239.91
2023-04-03T09:41:56.558Z,99242.61
2023-04-03T09:44:34.880Z,99243.01
2023-04-03T09:47:17.882Z,99242.27
2023-04-03T09:49:44.569Z,99250.02
2023-04-03T09:52:20.865Z,99247.09
2023-04-03T09:54:47.466Z,99251.77
2023-04-03T09:57:18.265Z,99254.20
2023-04-03T09:59:44.869Z,99253.02
2023-04-03T10:02:11.449Z,99252.16
2023-04-03T10:04:39.089Z,99252.84
2023-04-03T10:07:25.825Z,99251.86
2023-04-03T10:09:59.327Z,99254.77
2023-04-03T10:12:26.269Z,99256.09
2023-04-03T10:14:52.966Z,99259.02
2023-04-03T10:17:37.864Z,99261.98
2023-04-03T10:20:09.866Z,99264.23
2023-04-03T10:22:36.698Z,99270.02
2023-04-03T10:25:19.065Z,99276.42
2023-04-03T10:27:45.777Z,99284.02
2023-04-03T10:30:22.291Z,99290.17
2023-04-03T10:32:52.943Z,99291.73
2023-04-03T10:35:26.170Z,99302.34
2023-04-03T10:38:11.658Z,99305.04
2023-04-03T10:40:47.390Z,99316.39
2023-04-03T10:43:14.361Z,99320.38
2023-04-03T10:45:44.198Z,99321.02
2023-04-03T10:48:30.246Z,99324.58
2023-04-03T10:51:15.560Z,99327.94
2023-04-03T10:53:42.597Z,99329.04
2023-04-03T10:56:29.413Z,99330.81
2023-04-03T10:59:14.174Z,99333.80
2023-04-03T11:01:42.719Z,99331.20
2023-04-03T11:04:10.824Z,99332.96
2023-04-03T11:06:47.979Z,99334.02
2023-04-03T11:09:27.275Z,99329.98
2023-04-03T11:11:58.654Z,99330.83
2023-04-03T11:14:30.506Z,99328.73
2023-04-03T11:17:22.996Z,99335.66
2023-04-03T11:19:53.285Z,99335.25
2023-04-03T11:22:23.050Z,99331.16
2023-04-03T11:25:12.373Z,99329.68
2023-04-03T11:27:41.713Z,99333.79
2023-04-03T11:30:18.141Z,99332.86
2023-04-03T11:32:49.505Z,99333.16
2023-04-03T11:35:16.221Z,99339.21
2023-04-03T11:37:46.673Z,99343.89
2023-04-03T11:40:16.684Z,99351.02
2023-04-03T11:42:46.465Z,99349.85
2023-04-03T11:45:21.846Z,99351.83
2023-04-03T11:47:50.134Z,99352.05
2023-04-03T11:50:31.999Z,99351.92
2023-04-03T11:52:59.722Z,99353.73
2023-04-03T11:55:32.003Z,99358.79
2023-04-03T11:58:00.617Z,99359.53
2023-04-03T12:00:52.025Z,99357.45
2023-04-03T12:03:26.874Z,99358.55
2023-04-03T12:06:03.194Z,99363.96
2023-04-03T12:08:43.604Z,99369.54
2023-04-03T12:11:10.639Z,99371.45
2023-04-03T12:13:49.835Z,99371.97
2023-04-03T12:16:29.069Z,99378.06
2023-04-03T12:19:03.017Z,99377.35
2023-04-03T12:21:29.857Z,99381.20
2023-04-03T12:24:00.821Z,99386.95
2023-04-03T12:26:49.015Z,99386.77
2023-04-03T12:29:17.824Z,99387.13
2023-04-03T12:32:03.269Z,99393.24
2023-04-03T12:34:48.627Z,99394.13
2023-04-03T12:37:24.137Z,99396.41
